Arrival - Weather - Departure
Ostend Airport (EBOS - OST)
This page refreshes every 5 minutes.
Contact New Style NL | EN  Best Resolution: 1280x1024

Page last updated at 00:43:16
WEER EBOS TEST PAGE WEER
The report was made at 22:20 UTC (Now: 22:43:17 UTC)
The wind blows with a force of 17 km/h and is from the west
The sight is 9999 meter Runway 26 in use
The temperature is 15 °C The dew point is 12 °C
The humidity is 82 %
The air pressure is 0995 HPa
The weather is now scattered clouds at 396 meter altitude broken clouds at 518 meter altitude
The next two hours there is temporarily
2017/06/28 22:20 EBOS 282220Z 27009KT 9999 SCT013 BKN017 15/12 Q0995 TEMPO BKN012
METAR EBOS TAF EBOS Info METAR
© Bert Sanders

 
Interesting websites about EBOS
EBOS-Spotting
REPLO
Website airport
Other interesting websites
Spottinggroup RS06
Android app on Google Play